sensor_id;sensor_type;location;lat;lon;timestamp;P1;durP1;ratioP1;P2;durP2;ratioP2
69161;SDS011;56269;51.738;21.652;2022-12-15T00:00:54;25.13;;;9.10;;
69161;SDS011;56269;51.738;21.652;2022-12-15T00:03:38;22.88;;;8.32;;
69161;SDS011;56269;51.738;21.652;2022-12-15T00:06:23;13.07;;;5.55;;
69161;SDS011;56269;51.738;21.652;2022-12-15T00:09:08;18.48;;;7.30;;
69161;SDS011;56269;51.738;21.652;2022-12-15T00:11:52;22.83;;;9.63;;
69161;SDS011;56269;51.738;21.652;2022-12-15T00:14:37;18.20;;;7.22;;
69161;SDS011;56269;51.738;21.652;2022-12-15T00:17:21;24.77;;;9.63;;
69161;SDS011;56269;51.738;21.652;2022-12-15T00:20:06;32.90;;;11.55;;
69161;SDS011;56269;51.738;21.652;2022-12-15T00:22:51;23.42;;;9.07;;
69161;SDS011;56269;51.738;21.652;2022-12-15T00:25:36;28.57;;;9.57;;
69161;SDS011;56269;51.738;21.652;2022-12-15T00:28:20;21.23;;;7.60;;
69161;SDS011;56269;51.738;21.652;2022-12-15T00:31:05;32.05;;;10.60;;
69161;SDS011;56269;51.738;21.652;2022-12-15T00:33:50;33.35;;;11.15;;
69161;SDS011;56269;51.738;21.652;2022-12-15T00:36:34;29.67;;;10.68;;
69161;SDS011;56269;51.738;21.652;2022-12-15T00:39:19;27.40;;;9.50;;
69161;SDS011;56269;51.738;21.652;2022-12-15T00:41:45;19.30;;;7.93;;
69161;SDS011;56269;51.738;21.652;2022-12-15T00:44:11;39.05;;;12.05;;
69161;SDS011;56269;51.738;21.652;2022-12-15T00:46:37;34.10;;;11.45;;
69161;SDS011;56269;51.738;21.652;2022-12-15T00:49:26;29.48;;;11.32;;
69161;SDS011;56269;51.738;21.652;2022-12-15T00:52:12;32.47;;;10.17;;
69161;SDS011;56269;51.738;21.652;2022-12-15T00:54:58;30.35;;;11.38;;
69161;SDS011;56269;51.738;21.652;2022-12-15T00:57:43;19.20;;;8.05;;
69161;SDS011;56269;51.738;21.652;2022-12-15T01:00:28;19.67;;;8.30;;
69161;SDS011;56269;51.738;21.652;2022-12-15T01:03:18;34.90;;;12.55;;
69161;SDS011;56269;51.738;21.652;2022-12-15T01:06:06;32.27;;;11.10;;
69161;SDS011;56269;51.738;21.652;2022-12-15T01:08:52;25.33;;;8.10;;
69161;SDS011;56269;51.738;21.652;2022-12-15T01:11:37;22.20;;;8.73;;
69161;SDS011;56269;51.738;21.652;2022-12-15T01:14:22;25.23;;;8.95;;
69161;SDS011;56269;51.738;21.652;2022-12-15T01:17:08;11.68;;;4.55;;
69161;SDS011;56269;51.738;21.652;2022-12-15T01:19:52;24.57;;;10.20;;
69161;SDS011;56269;51.738;21.652;2022-12-15T01:22:37;33.17;;;9.65;;
69161;SDS011;56269;51.738;21.652;2022-12-15T01:25:05;26.45;;;9.82;;
69161;SDS011;56269;51.738;21.652;2022-12-15T01:27:33;30.02;;;10.85;;
69161;SDS011;56269;51.738;21.652;2022-12-15T01:30:00;36.75;;;12.60;;
69161;SDS011;56269;51.738;21.652;2022-12-15T01:32:27;36.47;;;11.90;;
69161;SDS011;56269;51.738;21.652;2022-12-15T01:34:53;32.08;;;10.57;;
69161;SDS011;56269;51.738;21.652;2022-12-15T01:37:19;36.95;;;12.80;;
69161;SDS011;56269;51.738;21.652;2022-12-15T01:39:45;22.02;;;8.23;;
69161;SDS011;56269;51.738;21.652;2022-12-15T01:42:30;19.88;;;7.88;;
69161;SDS011;56269;51.738;21.652;2022-12-15T01:45:23;36.20;;;11.03;;
69161;SDS011;56269;51.738;21.652;2022-12-15T01:48:04;20.48;;;7.53;;
69161;SDS011;56269;51.738;21.652;2022-12-15T01:50:41;31.17;;;11.90;;
69161;SDS011;56269;51.738;21.652;2022-12-15T01:53:11;25.80;;;9.77;;
69161;SDS011;56269;51.738;21.652;2022-12-15T01:55:40;29.38;;;11.30;;
69161;SDS011;56269;51.738;21.652;2022-12-15T01:58:09;33.37;;;9.03;;
69161;SDS011;56269;51.738;21.652;2022-12-15T02:00:38;29.63;;;11.07;;
69161;SDS011;56269;51.738;21.652;2022-12-15T02:03:04;33.92;;;11.93;;
69161;SDS011;56269;51.738;21.652;2022-12-15T02:05:31;33.45;;;12.45;;
69161;SDS011;56269;51.738;21.652;2022-12-15T02:07:59;25.25;;;9.77;;
69161;SDS011;56269;51.738;21.652;2022-12-15T02:10:30;25.17;;;8.20;;
69161;SDS011;56269;51.738;21.652;2022-12-15T02:13:14;29.15;;;10.60;;
69161;SDS011;56269;51.738;21.652;2022-12-15T02:19:28;21.23;;;7.65;;
69161;SDS011;56269;51.738;21.652;2022-12-15T02:22:08;30.00;;;10.55;;
69161;SDS011;56269;51.738;21.652;2022-12-15T02:25:29;30.60;;;11.10;;
69161;SDS011;56269;51.738;21.652;2022-12-15T02:27:57;31.75;;;10.90;;
69161;SDS011;56269;51.738;21.652;2022-12-15T02:33:43;28.05;;;10.63;;
69161;SDS011;56269;51.738;21.652;2022-12-15T02:36:17;29.20;;;11.30;;
69161;SDS011;56269;51.738;21.652;2022-12-15T02:38:50;28.63;;;10.97;;
69161;SDS011;56269;51.738;21.652;2022-12-15T02:41:37;36.15;;;11.73;;
69161;SDS011;56269;51.738;21.652;2022-12-15T02:44:09;32.08;;;12.10;;
69161;SDS011;56269;51.738;21.652;2022-12-15T02:52:45;28.13;;;9.80;;
69161;SDS011;56269;51.738;21.652;2022-12-15T02:58:24;33.50;;;12.20;;
69161;SDS011;56269;51.738;21.652;2022-12-15T03:00:57;30.10;;;11.90;;
69161;SDS011;56269;51.738;21.652;2022-12-15T03:03:28;29.83;;;10.18;;
69161;SDS011;56269;51.738;21.652;2022-12-15T03:05:56;28.30;;;10.90;;
69161;SDS011;56269;51.738;21.652;2022-12-15T03:08:23;36.53;;;12.38;;
69161;SDS011;56269;51.738;21.652;2022-12-15T03:10:50;32.90;;;11.85;;
69161;SDS011;56269;51.738;21.652;2022-12-15T03:13:19;33.55;;;12.48;;
69161;SDS011;56269;51.738;21.652;2022-12-15T03:15:47;38.80;;;13.25;;
69161;SDS011;56269;51.738;21.652;2022-12-15T03:18:14;37.77;;;12.37;;
69161;SDS011;56269;51.738;21.652;2022-12-15T03:20:40;31.55;;;12.20;;
69161;SDS011;56269;51.738;21.652;2022-12-15T03:23:06;34.30;;;11.85;;
69161;SDS011;56269;51.738;21.652;2022-12-15T03:25:32;32.28;;;12.07;;
69161;SDS011;56269;51.738;21.652;2022-12-15T03:27:59;32.40;;;12.85;;
69161;SDS011;56269;51.738;21.652;2022-12-15T03:30:25;37.77;;;13.47;;
69161;SDS011;56269;51.738;21.652;2022-12-15T03:32:51;37.90;;;13.07;;
69161;SDS011;56269;51.738;21.652;2022-12-15T03:35:18;25.08;;;9.77;;
69161;SDS011;56269;51.738;21.652;2022-12-15T03:37:45;29.50;;;10.70;;
69161;SDS011;56269;51.738;21.652;2022-12-15T03:40:11;32.67;;;12.63;;
69161;SDS011;56269;51.738;21.652;2022-12-15T03:42:42;29.93;;;11.43;;
69161;SDS011;56269;51.738;21.652;2022-12-15T03:45:23;34.30;;;11.75;;
69161;SDS011;56269;51.738;21.652;2022-12-15T03:47:51;34.60;;;12.65;;
69161;SDS011;56269;51.738;21.652;2022-12-15T03:50:19;36.83;;;12.90;;
69161;SDS011;56269;51.738;21.652;2022-12-15T03:52:54;36.45;;;13.25;;
69161;SDS011;56269;51.738;21.652;2022-12-15T03:55:22;33.30;;;12.67;;
69161;SDS011;56269;51.738;21.652;2022-12-15T03:57:49;35.00;;;12.38;;
69161;SDS011;56269;51.738;21.652;2022-12-15T04:00:16;26.67;;;8.45;;
69161;SDS011;56269;51.738;21.652;2022-12-15T04:02:44;31.35;;;11.85;;
69161;SDS011;56269;51.738;21.652;2022-12-15T04:05:16;29.17;;;10.70;;
69161;SDS011;56269;51.738;21.652;2022-12-15T04:07:51;35.33;;;12.27;;
69161;SDS011;56269;51.738;21.652;2022-12-15T04:10:18;30.58;;;11.23;;
69161;SDS011;56269;51.738;21.652;2022-12-15T04:15:37;37.70;;;12.75;;
69161;SDS011;56269;51.738;21.652;2022-12-15T04:18:06;35.15;;;12.55;;
69161;SDS011;56269;51.738;21.652;2022-12-15T04:20:34;30.63;;;9.97;;
69161;SDS011;56269;51.738;21.652;2022-12-15T04:23:01;28.10;;;11.15;;
69161;SDS011;56269;51.738;21.652;2022-12-15T04:25:28;32.95;;;11.82;;
69161;SDS011;56269;51.738;21.652;2022-12-15T04:28:12;36.88;;;12.93;;
69161;SDS011;56269;51.738;21.652;2022-12-15T04:31:01;35.75;;;12.05;;
69161;SDS011;56269;51.738;21.652;2022-12-15T04:33:51;34.43;;;12.43;;
69161;SDS011;56269;51.738;21.652;2022-12-15T04:36:38;33.30;;;12.65;;
69161;SDS011;56269;51.738;21.652;2022-12-15T04:39:26;27.98;;;9.95;;
69161;SDS011;56269;51.738;21.652;2022-12-15T04:42:11;29.55;;;10.10;;
69161;SDS011;56269;51.738;21.652;2022-12-15T04:44:57;37.60;;;14.38;;
69161;SDS011;56269;51.738;21.652;2022-12-15T04:47:45;36.10;;;13.43;;
69161;SDS011;56269;51.738;21.652;2022-12-15T04:50:29;38.60;;;13.25;;
69161;SDS011;56269;51.738;21.652;2022-12-15T04:53:15;40.83;;;14.55;;
69161;SDS011;56269;51.738;21.652;2022-12-15T04:56:01;40.67;;;12.90;;
69161;SDS011;56269;51.738;21.652;2022-12-15T04:58:46;32.40;;;10.85;;
69161;SDS011;56269;51.738;21.652;2022-12-15T05:01:32;22.47;;;8.13;;
69161;SDS011;56269;51.738;21.652;2022-12-15T05:04:17;24.15;;;9.48;;
69161;SDS011;56269;51.738;21.652;2022-12-15T05:07:02;35.65;;;13.07;;
69161;SDS011;56269;51.738;21.652;2022-12-15T05:09:47;28.15;;;10.60;;
69161;SDS011;56269;51.738;21.652;2022-12-15T05:12:31;32.70;;;12.63;;
69161;SDS011;56269;51.738;21.652;2022-12-15T05:15:19;23.10;;;8.70;;
69161;SDS011;56269;51.738;21.652;2022-12-15T05:18:04;33.30;;;12.20;;
69161;SDS011;56269;51.738;21.652;2022-12-15T05:20:48;28.60;;;11.10;;
69161;SDS011;56269;51.738;21.652;2022-12-15T05:23:33;27.63;;;10.00;;
69161;SDS011;56269;51.738;21.652;2022-12-15T05:26:18;30.30;;;11.35;;
69161;SDS011;56269;51.738;21.652;2022-12-15T05:29:02;28.83;;;10.83;;
69161;SDS011;56269;51.738;21.652;2022-12-15T05:31:47;25.48;;;11.05;;
69161;SDS011;56269;51.738;21.652;2022-12-15T05:34:18;27.88;;;11.50;;
69161;SDS011;56269;51.738;21.652;2022-12-15T05:36:45;18.52;;;9.20;;
69161;SDS011;56269;51.738;21.652;2022-12-15T05:39:12;15.85;;;8.10;;
69161;SDS011;56269;51.738;21.652;2022-12-15T05:41:38;33.37;;;11.07;;
69161;SDS011;56269;51.738;21.652;2022-12-15T05:44:04;29.95;;;11.57;;
69161;SDS011;56269;51.738;21.652;2022-12-15T05:46:30;34.40;;;12.57;;
69161;SDS011;56269;51.738;21.652;2022-12-15T05:48:57;47.42;;;12.48;;
69161;SDS011;56269;51.738;21.652;2022-12-15T05:51:23;27.02;;;8.38;;
69161;SDS011;56269;51.738;21.652;2022-12-15T05:53:50;27.17;;;9.40;;
69161;SDS011;56269;51.738;21.652;2022-12-15T05:56:16;31.05;;;11.55;;
69161;SDS011;56269;51.738;21.652;2022-12-15T05:58:42;25.88;;;9.07;;
69161;SDS011;56269;51.738;21.652;2022-12-15T06:01:10;15.27;;;6.97;;
69161;SDS011;56269;51.738;21.652;2022-12-15T06:03:38;22.98;;;9.35;;
69161;SDS011;56269;51.738;21.652;2022-12-15T06:06:05;22.00;;;7.10;;
69161;SDS011;56269;51.738;21.652;2022-12-15T06:08:33;23.63;;;9.05;;
69161;SDS011;56269;51.738;21.652;2022-12-15T06:11:01;25.42;;;9.52;;
69161;SDS011;56269;51.738;21.652;2022-12-15T06:13:28;22.65;;;7.90;;
69161;SDS011;56269;51.738;21.652;2022-12-15T06:15:56;19.77;;;8.15;;
69161;SDS011;56269;51.738;21.652;2022-12-15T06:18:25;28.43;;;9.43;;
69161;SDS011;56269;51.738;21.652;2022-12-15T06:20:58;26.02;;;9.88;;
69161;SDS011;56269;51.738;21.652;2022-12-15T06:23:26;19.88;;;10.50;;
69161;SDS011;56269;51.738;21.652;2022-12-15T06:25:53;30.95;;;11.13;;
69161;SDS011;56269;51.738;21.652;2022-12-15T06:28:21;26.52;;;9.93;;
69161;SDS011;56269;51.738;21.652;2022-12-15T06:30:50;24.60;;;8.30;;
69161;SDS011;56269;51.738;21.652;2022-12-15T06:33:21;17.63;;;7.63;;
69161;SDS011;56269;51.738;21.652;2022-12-15T06:35:47;32.75;;;11.80;;
69161;SDS011;56269;51.738;21.652;2022-12-15T06:38:14;30.25;;;11.13;;
69161;SDS011;56269;51.738;21.652;2022-12-15T06:40:40;17.98;;;7.05;;
69161;SDS011;56269;51.738;21.652;2022-12-15T06:43:06;18.23;;;7.13;;
69161;SDS011;56269;51.738;21.652;2022-12-15T06:45:33;26.92;;;11.07;;
69161;SDS011;56269;51.738;21.652;2022-12-15T06:48:00;30.45;;;9.88;;
69161;SDS011;56269;51.738;21.652;2022-12-15T06:50:26;37.10;;;11.60;;
69161;SDS011;56269;51.738;21.652;2022-12-15T06:52:52;28.50;;;9.15;;
69161;SDS011;56269;51.738;21.652;2022-12-15T06:55:19;32.77;;;12.93;;
69161;SDS011;56269;51.738;21.652;2022-12-15T06:57:47;38.97;;;13.80;;
69161;SDS011;56269;51.738;21.652;2022-12-15T07:00:14;28.23;;;11.85;;
69161;SDS011;56269;51.738;21.652;2022-12-15T07:02:40;33.58;;;10.38;;
69161;SDS011;56269;51.738;21.652;2022-12-15T07:05:07;29.15;;;9.57;;
69161;SDS011;56269;51.738;21.652;2022-12-15T07:07:33;25.85;;;10.43;;
69161;SDS011;56269;51.738;21.652;2022-12-15T07:10:00;27.05;;;9.90;;
69161;SDS011;56269;51.738;21.652;2022-12-15T07:12:26;23.67;;;10.05;;
69161;SDS011;56269;51.738;21.652;2022-12-15T07:14:52;31.08;;;10.30;;
69161;SDS011;56269;51.738;21.652;2022-12-15T07:17:18;21.60;;;8.20;;
69161;SDS011;56269;51.738;21.652;2022-12-15T07:19:44;17.08;;;6.70;;
69161;SDS011;56269;51.738;21.652;2022-12-15T07:22:10;31.70;;;12.73;;
69161;SDS011;56269;51.738;21.652;2022-12-15T07:24:37;24.60;;;9.68;;
69161;SDS011;56269;51.738;21.652;2022-12-15T07:27:03;26.00;;;9.80;;
69161;SDS011;56269;51.738;21.652;2022-12-15T07:29:29;31.75;;;12.50;;
69161;SDS011;56269;51.738;21.652;2022-12-15T07:31:55;26.75;;;11.10;;
69161;SDS011;56269;51.738;21.652;2022-12-15T07:34:22;23.42;;;9.00;;
69161;SDS011;56269;51.738;21.652;2022-12-15T07:36:48;16.05;;;8.95;;
69161;SDS011;56269;51.738;21.652;2022-12-15T07:39:14;38.03;;;12.07;;
69161;SDS011;56269;51.738;21.652;2022-12-15T07:41:40;38.20;;;14.32;;
69161;SDS011;56269;51.738;21.652;2022-12-15T07:44:07;34.22;;;11.57;;
69161;SDS011;56269;51.738;21.652;2022-12-15T07:46:33;34.72;;;11.30;;
69161;SDS011;56269;51.738;21.652;2022-12-15T07:48:59;45.92;;;19.05;;
69161;SDS011;56269;51.738;21.652;2022-12-15T07:51:25;28.08;;;10.07;;
69161;SDS011;56269;51.738;21.652;2022-12-15T07:53:52;38.28;;;13.77;;
69161;SDS011;56269;51.738;21.652;2022-12-15T07:56:18;37.20;;;13.82;;
69161;SDS011;56269;51.738;21.652;2022-12-15T07:58:45;25.35;;;11.07;;
69161;SDS011;56269;51.738;21.652;2022-12-15T08:01:13;30.45;;;11.80;;
69161;SDS011;56269;51.738;21.652;2022-12-15T08:03:40;25.88;;;12.13;;
69161;SDS011;56269;51.738;21.652;2022-12-15T08:06:07;24.02;;;9.65;;
69161;SDS011;56269;51.738;21.652;2022-12-15T08:08:35;35.72;;;13.60;;
69161;SDS011;56269;51.738;21.652;2022-12-15T08:11:04;21.05;;;8.50;;
69161;SDS011;56269;51.738;21.652;2022-12-15T08:13:32;28.98;;;12.20;;
69161;SDS011;56269;51.738;21.652;2022-12-15T08:15:59;25.25;;;10.55;;
69161;SDS011;56269;51.738;21.652;2022-12-15T08:18:25;18.20;;;8.15;;
69161;SDS011;56269;51.738;21.652;2022-12-15T08:20:51;26.60;;;11.18;;
69161;SDS011;56269;51.738;21.652;2022-12-15T08:23:18;20.98;;;10.80;;
69161;SDS011;56269;51.738;21.652;2022-12-15T08:25:44;20.73;;;9.85;;
69161;SDS011;56269;51.738;21.652;2022-12-15T08:28:10;26.95;;;9.10;;
69161;SDS011;56269;51.738;21.652;2022-12-15T08:30:36;25.65;;;10.82;;
69161;SDS011;56269;51.738;21.652;2022-12-15T08:33:03;23.50;;;10.60;;
69161;SDS011;56269;51.738;21.652;2022-12-15T08:35:29;24.58;;;11.02;;
69161;SDS011;56269;51.738;21.652;2022-12-15T08:37:55;30.25;;;12.55;;
69161;SDS011;56269;51.738;21.652;2022-12-15T08:40:21;29.58;;;9.45;;
69161;SDS011;56269;51.738;21.652;2022-12-15T08:42:47;35.45;;;11.80;;
69161;SDS011;56269;51.738;21.652;2022-12-15T08:45:13;19.23;;;8.80;;
69161;SDS011;56269;51.738;21.652;2022-12-15T08:47:40;51.50;;;20.13;;
69161;SDS011;56269;51.738;21.652;2022-12-15T08:50:06;19.75;;;7.90;;
69161;SDS011;56269;51.738;21.652;2022-12-15T08:52:33;34.22;;;13.50;;
69161;SDS011;56269;51.738;21.652;2022-12-15T08:54:59;22.38;;;8.05;;
69161;SDS011;56269;51.738;21.652;2022-12-15T08:57:25;15.07;;;7.07;;
69161;SDS011;56269;51.738;21.652;2022-12-15T08:59:51;30.97;;;11.83;;
69161;SDS011;56269;51.738;21.652;2022-12-15T09:02:18;38.60;;;10.82;;
69161;SDS011;56269;51.738;21.652;2022-12-15T09:04:45;20.83;;;9.90;;
69161;SDS011;56269;51.738;21.652;2022-12-15T09:07:11;24.52;;;10.57;;
69161;SDS011;56269;51.738;21.652;2022-12-15T09:09:38;22.52;;;10.43;;
69161;SDS011;56269;51.738;21.652;2022-12-15T09:12:04;24.23;;;10.73;;
69161;SDS011;56269;51.738;21.652;2022-12-15T09:14:30;26.52;;;11.55;;
69161;SDS011;56269;51.738;21.652;2022-12-15T09:16:56;36.92;;;11.55;;
69161;SDS011;56269;51.738;21.652;2022-12-15T09:19:23;26.00;;;9.43;;
69161;SDS011;56269;51.738;21.652;2022-12-15T09:21:50;32.80;;;12.82;;
69161;SDS011;56269;51.738;21.652;2022-12-15T09:24:16;26.13;;;9.93;;
69161;SDS011;56269;51.738;21.652;2022-12-15T09:26:42;39.00;;;13.13;;
69161;SDS011;56269;51.738;21.652;2022-12-15T09:29:10;25.27;;;9.23;;
69161;SDS011;56269;51.738;21.652;2022-12-15T09:31:38;34.88;;;13.07;;
69161;SDS011;56269;51.738;21.652;2022-12-15T09:34:04;33.78;;;13.73;;
69161;SDS011;56269;51.738;21.652;2022-12-15T09:36:31;35.13;;;12.17;;
69161;SDS011;56269;51.738;21.652;2022-12-15T09:38:57;37.70;;;13.35;;
69161;SDS011;56269;51.738;21.652;2022-12-15T09:41:25;37.40;;;13.52;;
69161;SDS011;56269;51.738;21.652;2022-12-15T09:52:17;37.58;;;12.80;;
69161;SDS011;56269;51.738;21.652;2022-12-15T09:54:46;22.00;;;9.60;;
69161;SDS011;56269;51.738;21.652;2022-12-15T09:57:16;19.73;;;8.40;;
69161;SDS011;56269;51.738;21.652;2022-12-15T10:00:05;31.92;;;11.07;;
69161;SDS011;56269;51.738;21.652;2022-12-15T10:05:31;20.77;;;9.82;;
69161;SDS011;56269;51.738;21.652;2022-12-15T10:08:00;24.83;;;11.15;;
69161;SDS011;56269;51.738;21.652;2022-12-15T10:10:33;33.15;;;12.43;;
69161;SDS011;56269;51.738;21.652;2022-12-15T10:13:55;28.55;;;11.75;;
69161;SDS011;56269;51.738;21.652;2022-12-15T10:16:04;23.20;;;8.97;;
69161;SDS011;56269;51.738;21.652;2022-12-15T10:18:57;32.13;;;10.93;;
69161;SDS011;56269;51.738;21.652;2022-12-15T10:21:36;38.13;;;14.50;;
69161;SDS011;56269;51.738;21.652;2022-12-15T10:24:36;33.95;;;13.52;;
69161;SDS011;56269;51.738;21.652;2022-12-15T10:27:18;25.65;;;10.05;;
69161;SDS011;56269;51.738;21.652;2022-12-15T10:32:33;32.30;;;13.63;;
69161;SDS011;56269;51.738;21.652;2022-12-15T10:35:17;34.55;;;14.05;;
69161;SDS011;56269;51.738;21.652;2022-12-15T10:37:47;37.85;;;14.82;;
69161;SDS011;56269;51.738;21.652;2022-12-15T10:40:16;37.45;;;14.98;;
69161;SDS011;56269;51.738;21.652;2022-12-15T10:42:44;37.63;;;15.83;;
69161;SDS011;56269;51.738;21.652;2022-12-15T10:45:33;33.72;;;12.57;;
69161;SDS011;56269;51.738;21.652;2022-12-15T10:48:02;32.67;;;13.73;;
69161;SDS011;56269;51.738;21.652;2022-12-15T10:50:31;41.90;;;13.85;;
69161;SDS011;56269;51.738;21.652;2022-12-15T10:52:58;36.05;;;13.88;;
69161;SDS011;56269;51.738;21.652;2022-12-15T10:55:38;30.93;;;14.50;;
69161;SDS011;56269;51.738;21.652;2022-12-15T10:58:19;44.13;;;16.08;;
69161;SDS011;56269;51.738;21.652;2022-12-15T11:00:47;33.45;;;12.98;;
69161;SDS011;56269;51.738;21.652;2022-12-15T11:03:29;46.08;;;16.88;;
69161;SDS011;56269;51.738;21.652;2022-12-15T11:06:01;43.67;;;15.65;;
69161;SDS011;56269;51.738;21.652;2022-12-15T11:08:40;36.00;;;14.00;;
69161;SDS011;56269;51.738;21.652;2022-12-15T11:11:21;56.75;;;19.88;;
69161;SDS011;56269;51.738;21.652;2022-12-15T11:14:19;28.33;;;10.15;;
69161;SDS011;56269;51.738;21.652;2022-12-15T11:16:55;50.95;;;18.20;;
69161;SDS011;56269;51.738;21.652;2022-12-15T11:21:58;31.33;;;12.33;;
69161;SDS011;56269;51.738;21.652;2022-12-15T11:24:32;52.67;;;17.15;;
69161;SDS011;56269;51.738;21.652;2022-12-15T11:30:12;63.40;;;21.40;;
69161;SDS011;56269;51.738;21.652;2022-12-15T11:32:44;42.08;;;16.88;;
69161;SDS011;56269;51.738;21.652;2022-12-15T11:35:25;46.83;;;17.20;;
69161;SDS011;56269;51.738;21.652;2022-12-15T11:38:03;46.42;;;17.90;;
69161;SDS011;56269;51.738;21.652;2022-12-15T11:40:50;35.70;;;13.27;;
69161;SDS011;56269;51.738;21.652;2022-12-15T11:43:23;45.55;;;16.55;;
69161;SDS011;56269;51.738;21.652;2022-12-15T11:55:03;58.00;;;19.73;;
69161;SDS011;56269;51.738;21.652;2022-12-15T12:01:00;42.67;;;14.38;;
69161;SDS011;56269;51.738;21.652;2022-12-15T12:06:37;61.50;;;18.75;;
69161;SDS011;56269;51.738;21.652;2022-12-15T12:09:32;65.05;;;21.95;;
69161;SDS011;56269;51.738;21.652;2022-12-15T12:22:46;67.10;;;22.90;;
69161;SDS011;56269;51.738;21.652;2022-12-15T12:25:37;51.40;;;18.17;;
69161;SDS011;56269;51.738;21.652;2022-12-15T12:28:16;56.95;;;20.25;;
69161;SDS011;56269;51.738;21.652;2022-12-15T12:30:48;50.77;;;17.67;;
69161;SDS011;56269;51.738;21.652;2022-12-15T12:36:02;46.92;;;16.30;;
69161;SDS011;56269;51.738;21.652;2022-12-15T12:38:39;45.22;;;16.23;;
69161;SDS011;56269;51.738;21.652;2022-12-15T12:41:14;47.35;;;17.42;;
69161;SDS011;56269;51.738;21.652;2022-12-15T12:44:03;43.57;;;16.87;;
69161;SDS011;56269;51.738;21.652;2022-12-15T12:46:42;57.47;;;19.33;;
69161;SDS011;56269;51.738;21.652;2022-12-15T12:51:51;44.97;;;16.33;;
69161;SDS011;56269;51.738;21.652;2022-12-15T12:57:01;58.40;;;18.53;;
69161;SDS011;56269;51.738;21.652;2022-12-15T12:59:56;47.70;;;16.42;;
69161;SDS011;56269;51.738;21.652;2022-12-15T13:07:35;42.25;;;15.07;;
69161;SDS011;56269;51.738;21.652;2022-12-15T13:12:35;65.78;;;21.77;;
69161;SDS011;56269;51.738;21.652;2022-12-15T13:15:39;40.25;;;15.23;;
69161;SDS011;56269;51.738;21.652;2022-12-15T13:18:16;52.40;;;18.23;;
69161;SDS011;56269;51.738;21.652;2022-12-15T13:20:45;41.95;;;15.52;;
69161;SDS011;56269;51.738;21.652;2022-12-15T13:39:04;66.78;;;21.30;;
69161;SDS011;56269;51.738;21.652;2022-12-15T13:44:48;68.72;;;21.70;;
69161;SDS011;56269;51.738;21.652;2022-12-15T13:47:10;34.88;;;13.82;;
69161;SDS011;56269;51.738;21.652;2022-12-15T13:50:12;38.37;;;14.83;;
69161;SDS011;56269;51.738;21.652;2022-12-15T13:52:48;68.90;;;22.42;;
69161;SDS011;56269;51.738;21.652;2022-12-15T13:55:24;66.38;;;22.33;;
69161;SDS011;56269;51.738;21.652;2022-12-15T13:57:57;73.43;;;21.27;;
69161;SDS011;56269;51.738;21.652;2022-12-15T14:00:28;62.55;;;19.85;;
69161;SDS011;56269;51.738;21.652;2022-12-15T14:03:04;75.03;;;22.40;;
69161;SDS011;56269;51.738;21.652;2022-12-15T14:05:32;56.35;;;18.40;;
69161;SDS011;56269;51.738;21.652;2022-12-15T14:07:59;48.17;;;17.45;;
69161;SDS011;56269;51.738;21.652;2022-12-15T14:10:32;53.88;;;17.95;;
69161;SDS011;56269;51.738;21.652;2022-12-15T14:16:02;29.73;;;12.18;;
69161;SDS011;56269;51.738;21.652;2022-12-15T14:18:44;61.33;;;16.98;;
69161;SDS011;56269;51.738;21.652;2022-12-15T14:21:36;36.72;;;13.98;;
69161;SDS011;56269;51.738;21.652;2022-12-15T14:24:14;21.15;;;9.60;;
69161;SDS011;56269;51.738;21.652;2022-12-15T14:26:47;36.85;;;14.32;;
69161;SDS011;56269;51.738;21.652;2022-12-15T14:29:13;28.42;;;11.75;;
69161;SDS011;56269;51.738;21.652;2022-12-15T14:31:39;21.13;;;8.73;;
69161;SDS011;56269;51.738;21.652;2022-12-15T14:34:17;36.20;;;14.73;;
69161;SDS011;56269;51.738;21.652;2022-12-15T14:36:57;29.98;;;10.65;;
69161;SDS011;56269;51.738;21.652;2022-12-15T14:39:29;30.58;;;11.35;;
69161;SDS011;56269;51.738;21.652;2022-12-15T14:42:04;26.88;;;9.75;;
69161;SDS011;56269;51.738;21.652;2022-12-15T14:44:33;16.17;;;8.07;;
69161;SDS011;56269;51.738;21.652;2022-12-15T14:47:02;35.10;;;12.77;;
69161;SDS011;56269;51.738;21.652;2022-12-15T14:49:40;43.90;;;14.32;;
69161;SDS011;56269;51.738;21.652;2022-12-15T14:52:52;28.73;;;9.85;;
69161;SDS011;56269;51.738;21.652;2022-12-15T14:55:01;21.08;;;10.38;;
69161;SDS011;56269;51.738;21.652;2022-12-15T14:57:46;50.70;;;16.92;;
69161;SDS011;56269;51.738;21.652;2022-12-15T15:00:46;44.80;;;15.13;;
69161;SDS011;56269;51.738;21.652;2022-12-15T15:03:16;46.38;;;13.18;;
69161;SDS011;56269;51.738;21.652;2022-12-15T15:05:48;52.00;;;16.88;;
69161;SDS011;56269;51.738;21.652;2022-12-15T15:10:53;40.55;;;12.10;;
69161;SDS011;56269;51.738;21.652;2022-12-15T15:13:23;43.47;;;13.25;;
69161;SDS011;56269;51.738;21.652;2022-12-15T15:15:56;31.08;;;12.88;;
69161;SDS011;56269;51.738;21.652;2022-12-15T15:18:28;16.58;;;7.75;;
69161;SDS011;56269;51.738;21.652;2022-12-15T15:20:58;21.55;;;8.18;;
69161;SDS011;56269;51.738;21.652;2022-12-15T15:23:28;26.63;;;9.75;;
69161;SDS011;56269;51.738;21.652;2022-12-15T15:33:52;44.40;;;12.20;;
69161;SDS011;56269;51.738;21.652;2022-12-15T15:36:21;24.27;;;7.80;;
69161;SDS011;56269;51.738;21.652;2022-12-15T15:38:54;36.83;;;11.35;;
69161;SDS011;56269;51.738;21.652;2022-12-15T15:41:25;40.38;;;14.48;;
69161;SDS011;56269;51.738;21.652;2022-12-15T15:43:54;48.60;;;14.23;;
69161;SDS011;56269;51.738;21.652;2022-12-15T15:46:24;38.27;;;13.03;;
69161;SDS011;56269;51.738;21.652;2022-12-15T15:48:58;41.47;;;14.02;;
69161;SDS011;56269;51.738;21.652;2022-12-15T15:51:30;32.80;;;10.07;;
69161;SDS011;56269;51.738;21.652;2022-12-15T15:53:58;35.10;;;11.95;;
69161;SDS011;56269;51.738;21.652;2022-12-15T15:56:27;47.65;;;13.02;;
69161;SDS011;56269;51.738;21.652;2022-12-15T15:58:55;44.20;;;13.40;;
69161;SDS011;56269;51.738;21.652;2022-12-15T16:01:23;44.35;;;13.25;;
69161;SDS011;56269;51.738;21.652;2022-12-15T16:03:49;30.55;;;10.18;;
69161;SDS011;56269;51.738;21.652;2022-12-15T16:06:17;23.77;;;8.13;;
69161;SDS011;56269;51.738;21.652;2022-12-15T16:08:49;23.52;;;8.73;;
69161;SDS011;56269;51.738;21.652;2022-12-15T16:11:20;21.83;;;9.30;;
69161;SDS011;56269;51.738;21.652;2022-12-15T16:13:47;25.95;;;8.10;;
69161;SDS011;56269;51.738;21.652;2022-12-15T16:16:21;37.58;;;12.52;;
69161;SDS011;56269;51.738;21.652;2022-12-15T16:18:48;36.15;;;11.77;;
69161;SDS011;56269;51.738;21.652;2022-12-15T16:21:15;38.20;;;12.82;;
69161;SDS011;56269;51.738;21.652;2022-12-15T16:23:42;36.97;;;12.60;;
69161;SDS011;56269;51.738;21.652;2022-12-15T16:26:12;25.98;;;10.00;;
69161;SDS011;56269;51.738;21.652;2022-12-15T16:28:41;40.38;;;13.00;;
69161;SDS011;56269;51.738;21.652;2022-12-15T16:31:09;46.05;;;13.68;;
69161;SDS011;56269;51.738;21.652;2022-12-15T16:33:40;49.70;;;15.15;;
69161;SDS011;56269;51.738;21.652;2022-12-15T16:36:10;47.22;;;14.82;;
69161;SDS011;56269;51.738;21.652;2022-12-15T16:38:38;67.47;;;20.00;;
69161;SDS011;56269;51.738;21.652;2022-12-15T16:41:06;90.30;;;25.05;;